sensor_id;sensor_type;location;lat;lon;timestamp;pressure;altitude;pressure_sealevel;temperature;humidity
27020;BME280;76819;49.098;11.826;2024-02-26T12:27:54;94666.56;;;23.30;31.69
27020;BME280;76819;49.098;11.826;2024-02-26T12:32:57;94654.13;;;22.87;32.17
27020;BME280;76819;49.098;11.826;2024-02-26T12:38:03;94662.72;;;23.10;31.42
27020;BME280;76819;49.098;11.826;2024-02-26T12:43:08;94669.31;;;23.50;30.38
27020;BME280;76819;49.098;11.826;2024-02-26T12:48:14;94662.16;;;23.54;30.81
27020;BME280;76819;49.098;11.826;2024-02-26T12:53:17;94670.03;;;23.59;30.71
27020;BME280;76819;49.098;11.826;2024-02-26T12:58:21;94671.81;;;23.26;30.96
27020;BME280;76819;49.098;11.826;2024-02-26T13:03:26;94669.28;;;24.21;29.76
27020;BME280;76819;49.098;11.826;2024-02-26T13:08:32;94671.44;;;24.28;29.59
27020;BME280;76819;49.098;11.826;2024-02-26T13:13:36;94674.00;;;24.57;29.51
27020;BME280;76819;49.098;11.826;2024-02-26T13:18:38;94665.78;;;25.71;27.80
27020;BME280;76819;49.098;11.826;2024-02-26T13:23:42;94658.50;;;26.55;26.70
27020;BME280;76819;49.098;11.826;2024-02-26T13:28:59;94665.03;;;26.97;26.13
27020;BME280;76819;49.098;11.826;2024-02-26T13:34:01;94670.16;;;26.43;26.02
27020;BME280;76819;49.098;11.826;2024-02-26T13:39:04;94663.03;;;25.83;26.51
27020;BME280;76819;49.098;11.826;2024-02-26T13:44:09;94661.19;;;25.23;26.45
27020;BME280;76819;49.098;11.826;2024-02-26T13:49:12;94663.63;;;24.92;26.40
27020;BME280;76819;49.098;11.826;2024-02-26T13:54:14;94660.44;;;24.77;26.36
27020;BME280;76819;49.098;11.826;2024-02-26T13:59:18;94664.94;;;23.66;27.27
27020;BME280;76819;49.098;11.826;2024-02-26T14:04:21;94667.72;;;22.91;28.71
27020;BME280;76819;49.098;11.826;2024-02-26T14:09:24;94653.25;;;22.49;28.99
27020;BME280;76819;49.098;11.826;2024-02-26T14:14:41;94673.84;;;21.76;30.45
27020;BME280;76819;49.098;11.826;2024-02-26T14:19:44;94682.66;;;20.94;31.45
27020;BME280;76819;49.098;11.826;2024-02-26T14:24:49;94689.13;;;20.32;32.44
27020;BME280;76819;49.098;11.826;2024-02-26T14:29:53;94710.84;;;19.72;33.58
27020;BME280;76819;49.098;11.826;2024-02-26T14:34:56;94717.06;;;19.18;33.85
27020;BME280;76819;49.098;11.826;2024-02-26T14:39:59;94718.63;;;18.78;34.55
27020;BME280;76819;49.098;11.826;2024-02-26T14:45:04;94722.38;;;18.31;35.03
27020;BME280;76819;49.098;11.826;2024-02-26T14:50:09;94721.03;;;17.96;35.66
27020;BME280;76819;49.098;11.826;2024-02-26T14:55:12;94729.63;;;17.56;36.01
27020;BME280;76819;49.098;11.826;2024-02-26T15:00:17;94739.25;;;17.33;36.63
27020;BME280;76819;49.098;11.826;2024-02-26T15:05:20;94728.63;;;17.10;37.71
27020;BME280;76819;49.098;11.826;2024-02-26T15:10:22;94732.91;;;17.06;38.23
27020;BME280;76819;49.098;11.826;2024-02-26T15:15:26;94739.50;;;16.89;38.40
27020;BME280;76819;49.098;11.826;2024-02-26T15:20:29;94732.22;;;16.71;38.77
27020;BME280;76819;49.098;11.826;2024-02-26T15:25:32;94740.38;;;16.51;39.35
27020;BME280;76819;49.098;11.826;2024-02-26T15:30:36;94748.03;;;16.29;39.11
27020;BME280;76819;49.098;11.826;2024-02-26T15:35:39;94752.44;;;16.10;39.56
27020;BME280;76819;49.098;11.826;2024-02-26T15:40:43;94765.63;;;15.86;39.68
27020;BME280;76819;49.098;11.826;2024-02-26T15:45:49;94777.78;;;15.58;39.92
27020;BME280;76819;49.098;11.826;2024-02-26T15:50:52;94786.41;;;15.25;40.49
27020;BME280;76819;49.098;11.826;2024-02-26T15:55:54;94803.75;;;14.97;40.99
27020;BME280;76819;49.098;11.826;2024-02-26T16:00:58;94811.25;;;14.80;41.62
27020;BME280;76819;49.098;11.826;2024-02-26T16:06:19;94821.06;;;14.74;41.88
27020;BME280;76819;49.098;11.826;2024-02-26T16:11:23;94823.22;;;14.67;42.29
27020;BME280;76819;49.098;11.826;2024-02-26T16:16:29;94831.72;;;14.54;42.74
27020;BME280;76819;49.098;11.826;2024-02-26T16:21:34;94829.56;;;14.36;42.85
27020;BME280;76819;49.098;11.826;2024-02-26T16:26:37;94824.75;;;14.13;43.22
27020;BME280;76819;49.098;11.826;2024-02-26T16:31:41;94827.63;;;13.91;43.65
27020;BME280;76819;49.098;11.826;2024-02-26T16:36:44;94836.88;;;13.73;43.85
27020;BME280;76819;49.098;11.826;2024-02-26T16:41:46;94849.03;;;13.64;44.39
27020;BME280;76819;49.098;11.826;2024-02-26T16:46:50;94856.94;;;13.49;44.84
27020;BME280;76819;49.098;11.826;2024-02-26T16:51:53;94851.59;;;13.39;45.28
27020;BME280;76819;49.098;11.826;2024-02-26T16:56:56;94858.16;;;13.27;45.72
27020;BME280;76819;49.098;11.826;2024-02-26T17:02:00;94869.28;;;13.23;46.13
27020;BME280;76819;49.098;11.826;2024-02-26T17:07:02;94870.53;;;13.11;46.23
27020;BME280;76819;49.098;11.826;2024-02-26T17:12:06;94873.63;;;13.03;46.71
27020;BME280;76819;49.098;11.826;2024-02-26T17:17:12;94874.56;;;12.87;47.18
27020;BME280;76819;49.098;11.826;2024-02-26T17:22:15;94875.78;;;12.69;47.51
27020;BME280;76819;49.098;11.826;2024-02-26T17:27:18;94878.56;;;12.52;47.99
27020;BME280;76819;49.098;11.826;2024-02-26T17:32:23;94878.66;;;12.36;48.38
27020;BME280;76819;49.098;11.826;2024-02-26T17:37:25;94893.09;;;12.23;48.60
27020;BME280;76819;49.098;11.826;2024-02-26T17:42:28;94898.78;;;12.10;49.02
27020;BME280;76819;49.098;11.826;2024-02-26T17:47:32;94906.03;;;11.93;49.25
27020;BME280;76819;49.098;11.826;2024-02-26T17:52:35;94917.78;;;11.80;49.83
27020;BME280;76819;49.098;11.826;2024-02-26T17:57:38;94922.25;;;11.80;49.63
27020;BME280;76819;49.098;11.826;2024-02-26T18:02:42;94925.78;;;11.68;49.92
27020;BME280;76819;49.098;11.826;2024-02-26T18:07:45;94913.38;;;11.47;50.72
27020;BME280;76819;49.098;11.826;2024-02-26T18:12:48;94916.69;;;11.38;50.97
27020;BME280;76819;49.098;11.826;2024-02-26T18:17:52;94919.69;;;11.25;51.36
27020;BME280;76819;49.098;11.826;2024-02-26T18:22:55;94928.88;;;11.22;51.44
27020;BME280;76819;49.098;11.826;2024-02-26T18:27:59;94944.47;;;11.24;51.44
27020;BME280;76819;49.098;11.826;2024-02-26T18:33:04;94959.50;;;11.23;51.51
27020;BME280;76819;49.098;11.826;2024-02-26T18:38:06;94960.81;;;11.21;51.72
27020;BME280;76819;49.098;11.826;2024-02-26T18:43:09;94962.41;;;11.05;51.85
27020;BME280;76819;49.098;11.826;2024-02-26T18:48:13;94966.13;;;11.04;52.09
27020;BME280;76819;49.098;11.826;2024-02-26T18:53:17;94974.75;;;10.99;52.03
27020;BME280;76819;49.098;11.826;2024-02-26T18:58:20;94983.38;;;10.95;51.79
27020;BME280;76819;49.098;11.826;2024-02-26T19:03:26;95000.19;;;10.89;52.16
27020;BME280;76819;49.098;11.826;2024-02-26T19:08:29;94999.69;;;10.92;51.75
27020;BME280;76819;49.098;11.826;2024-02-26T19:13:31;95009.28;;;10.98;51.81
27020;BME280;76819;49.098;11.826;2024-02-26T19:18:36;95015.84;;;10.95;51.30
27020;BME280;76819;49.098;11.826;2024-02-26T19:23:38;95023.22;;;10.93;51.06
27020;BME280;76819;49.098;11.826;2024-02-26T19:28:41;95035.06;;;10.91;50.97
27020;BME280;76819;49.098;11.826;2024-02-26T19:33:47;95042.72;;;10.92;50.84
27020;BME280;76819;49.098;11.826;2024-02-26T19:38:52;95044.66;;;10.97;50.53
27020;BME280;76819;49.098;11.826;2024-02-26T19:43:55;95041.84;;;10.87;50.50
27020;BME280;76819;49.098;11.826;2024-02-26T19:48:59;95038.72;;;10.73;50.64
27020;BME280;76819;49.098;11.826;2024-02-26T19:54:02;95052.16;;;10.72;51.09
27020;BME280;76819;49.098;11.826;2024-02-26T19:59:06;95059.47;;;10.70;50.93
27020;BME280;76819;49.098;11.826;2024-02-26T20:04:10;95057.91;;;10.69;51.00
27020;BME280;76819;49.098;11.826;2024-02-26T20:09:16;95057.06;;;10.51;51.11
27020;BME280;76819;49.098;11.826;2024-02-26T20:14:21;95063.53;;;10.32;52.15
27020;BME280;76819;49.098;11.826;2024-02-26T20:19:28;95074.81;;;10.16;52.44
27020;BME280;76819;49.098;11.826;2024-02-26T20:24:30;95063.00;;;10.19;52.36
27020;BME280;76819;49.098;11.826;2024-02-26T20:29:33;95070.56;;;10.15;52.52
27020;BME280;76819;49.098;11.826;2024-02-26T20:34:37;95087.53;;;10.19;52.43
27020;BME280;76819;49.098;11.826;2024-02-26T20:39:41;95092.47;;;10.04;52.48
27020;BME280;76819;49.098;11.826;2024-02-26T20:44:44;95091.44;;;10.05;52.52
27020;BME280;76819;49.098;11.826;2024-02-26T20:55:42;95092.59;;;9.86;52.87
27020;BME280;76819;49.098;11.826;2024-02-26T21:07:41;95132.88;;;9.40;53.50
27020;BME280;76819;49.098;11.826;2024-02-26T21:12:48;95116.63;;;9.54;53.52
27020;BME280;76819;49.098;11.826;2024-02-26T21:17:51;95109.69;;;9.60;53.15
27020;BME280;76819;49.098;11.826;2024-02-26T21:22:55;95128.13;;;9.60;53.07
27020;BME280;76819;49.098;11.826;2024-02-26T21:27:58;95145.16;;;9.57;53.42
27020;BME280;76819;49.098;11.826;2024-02-26T21:33:02;95155.00;;;9.62;52.96
27020;BME280;76819;49.098;11.826;2024-02-26T21:38:07;95150.41;;;9.57;53.15
27020;BME280;76819;49.098;11.826;2024-02-26T21:43:11;95154.78;;;9.52;53.29
27020;BME280;76819;49.098;11.826;2024-02-26T21:48:14;95149.97;;;9.49;53.45
27020;BME280;76819;49.098;11.826;2024-02-26T21:53:18;95138.03;;;9.35;53.85
27020;BME280;76819;49.098;11.826;2024-02-26T21:58:21;95146.63;;;9.42;53.58
27020;BME280;76819;49.098;11.826;2024-02-26T22:08:19;95132.19;;;9.33;53.56
27020;BME280;76819;49.098;11.826;2024-02-26T22:13:22;95143.53;;;9.33;53.56
27020;BME280;76819;49.098;11.826;2024-02-26T22:18:25;95175.56;;;9.30;53.67
27020;BME280;76819;49.098;11.826;2024-02-26T22:23:29;95162.16;;;9.32;53.79
27020;BME280;76819;49.098;11.826;2024-02-26T22:28:31;95164.13;;;9.36;53.78
27020;BME280;76819;49.098;11.826;2024-02-26T22:33:34;95170.75;;;9.27;54.21
27020;BME280;76819;49.098;11.826;2024-02-26T22:38:39;95196.25;;;9.15;54.58
27020;BME280;76819;49.098;11.826;2024-02-26T22:43:41;95192.72;;;9.21;54.32
27020;BME280;76819;49.098;11.826;2024-02-26T22:48:44;95196.06;;;9.28;54.46
27020;BME280;76819;49.098;11.826;2024-02-26T22:53:48;95199.47;;;9.29;54.37
27020;BME280;76819;49.098;11.826;2024-02-26T22:58:50;95195.25;;;9.28;54.46
27020;BME280;76819;49.098;11.826;2024-02-26T23:03:53;95204.50;;;9.19;54.68
27020;BME280;76819;49.098;11.826;2024-02-26T23:08:58;95204.78;;;9.11;54.94
27020;BME280;76819;49.098;11.826;2024-02-26T23:14:01;95213.78;;;9.03;54.96
27020;BME280;76819;49.098;11.826;2024-02-26T23:19:03;95218.94;;;8.98;55.11
27020;BME280;76819;49.098;11.826;2024-02-26T23:24:09;95226.63;;;8.99;54.95
27020;BME280;76819;49.098;11.826;2024-02-26T23:29:11;95236.50;;;8.86;55.50
27020;BME280;76819;49.098;11.826;2024-02-26T23:34:14;95227.78;;;8.85;55.56
27020;BME280;76819;49.098;11.826;2024-02-26T23:39:18;95226.03;;;8.79;55.49
27020;BME280;76819;49.098;11.826;2024-02-26T23:44:21;95228.88;;;8.78;55.75
27020;BME280;76819;49.098;11.826;2024-02-26T23:49:24;95247.97;;;8.73;56.26
27020;BME280;76819;49.098;11.826;2024-02-26T23:54:28;95244.69;;;8.60;56.34
27020;BME280;76819;49.098;11.826;2024-02-26T23:59:30;95249.72;;;8.61;56.71
